sensor_id;sensor_type;location;lat;lon;timestamp;P1;durP1;ratioP1;P2;durP2;ratioP2
38479;SDS011;62333;51.980;5.934;2022-11-20T00:01:20;7.88;;;4.70;;
38479;SDS011;62333;51.980;5.934;2022-11-20T00:03:47;8.35;;;5.32;;
38479;SDS011;62333;51.980;5.934;2022-11-20T00:06:15;10.40;;;5.15;;
38479;SDS011;62333;51.980;5.934;2022-11-20T00:08:42;11.40;;;5.68;;
38479;SDS011;62333;51.980;5.934;2022-11-20T00:11:09;9.35;;;4.30;;
38479;SDS011;62333;51.980;5.934;2022-11-20T00:13:37;8.85;;;4.80;;
38479;SDS011;62333;51.980;5.934;2022-11-20T00:16:03;6.63;;;4.03;;
38479;SDS011;62333;51.980;5.934;2022-11-20T00:18:30;9.70;;;5.68;;
38479;SDS011;62333;51.980;5.934;2022-11-20T00:21:04;9.52;;;6.28;;
38479;SDS011;62333;51.980;5.934;2022-11-20T00:23:32;7.28;;;4.18;;
38479;SDS011;62333;51.980;5.934;2022-11-20T00:26:04;6.18;;;3.63;;
38479;SDS011;62333;51.980;5.934;2022-11-20T00:28:32;8.32;;;4.35;;
38479;SDS011;62333;51.980;5.934;2022-11-20T00:31:05;6.78;;;4.20;;
38479;SDS011;62333;51.980;5.934;2022-11-20T00:33:33;8.35;;;3.95;;
38479;SDS011;62333;51.980;5.934;2022-11-20T00:36:06;9.95;;;5.22;;
38479;SDS011;62333;51.980;5.934;2022-11-20T00:38:33;11.48;;;6.30;;
38479;SDS011;62333;51.980;5.934;2022-11-20T00:41:00;9.90;;;6.18;;
38479;SDS011;62333;51.980;5.934;2022-11-20T00:43:28;9.68;;;5.05;;
38479;SDS011;62333;51.980;5.934;2022-11-20T00:46:04;10.38;;;6.60;;
38479;SDS011;62333;51.980;5.934;2022-11-20T00:48:31;9.43;;;5.05;;
38479;SDS011;62333;51.980;5.934;2022-11-20T00:50:57;11.27;;;6.35;;
38479;SDS011;62333;51.980;5.934;2022-11-20T00:53:23;11.38;;;7.72;;
38479;SDS011;62333;51.980;5.934;2022-11-20T00:56:02;13.95;;;6.55;;
38479;SDS011;62333;51.980;5.934;2022-11-20T00:58:33;9.05;;;6.07;;
38479;SDS011;62333;51.980;5.934;2022-11-20T01:01:03;13.18;;;6.30;;
38479;SDS011;62333;51.980;5.934;2022-11-20T01:03:37;18.67;;;10.55;;
38479;SDS011;62333;51.980;5.934;2022-11-20T01:06:07;24.08;;;14.65;;
38479;SDS011;62333;51.980;5.934;2022-11-20T01:08:41;19.95;;;11.35;;
38479;SDS011;62333;51.980;5.934;2022-11-20T01:11:10;19.48;;;8.77;;
38479;SDS011;62333;51.980;5.934;2022-11-20T01:13:39;19.42;;;9.73;;
38479;SDS011;62333;51.980;5.934;2022-11-20T01:18:37;25.13;;;12.90;;
38479;SDS011;62333;51.980;5.934;2022-11-20T01:21:08;24.38;;;13.07;;
38479;SDS011;62333;51.980;5.934;2022-11-20T01:23:36;21.58;;;10.13;;
38479;SDS011;62333;51.980;5.934;2022-11-20T01:26:04;24.02;;;11.73;;
38479;SDS011;62333;51.980;5.934;2022-11-20T01:28:35;21.13;;;11.20;;
38479;SDS011;62333;51.980;5.934;2022-11-20T01:31:02;22.23;;;11.30;;
38479;SDS011;62333;51.980;5.934;2022-11-20T01:33:40;18.05;;;9.32;;
38479;SDS011;62333;51.980;5.934;2022-11-20T01:36:07;15.57;;;7.07;;
38479;SDS011;62333;51.980;5.934;2022-11-20T01:38:33;12.13;;;7.47;;
38479;SDS011;62333;51.980;5.934;2022-11-20T01:40:59;11.32;;;5.95;;
38479;SDS011;62333;51.980;5.934;2022-11-20T01:43:25;12.60;;;6.47;;
38479;SDS011;62333;51.980;5.934;2022-11-20T01:48:21;10.02;;;5.40;;
38479;SDS011;62333;51.980;5.934;2022-11-20T01:50:50;7.38;;;4.28;;
38479;SDS011;62333;51.980;5.934;2022-11-20T01:53:17;8.65;;;5.57;;
38479;SDS011;62333;51.980;5.934;2022-11-20T01:55:49;10.35;;;4.78;;
38479;SDS011;62333;51.980;5.934;2022-11-20T01:58:22;8.38;;;4.43;;
38479;SDS011;62333;51.980;5.934;2022-11-20T02:00:57;8.27;;;4.00;;
38479;SDS011;62333;51.980;5.934;2022-11-20T02:03:23;8.30;;;4.60;;
38479;SDS011;62333;51.980;5.934;2022-11-20T02:05:58;8.90;;;4.78;;
38479;SDS011;62333;51.980;5.934;2022-11-20T02:08:33;7.50;;;4.80;;
38479;SDS011;62333;51.980;5.934;2022-11-20T02:10:59;6.25;;;3.78;;
38479;SDS011;62333;51.980;5.934;2022-11-20T02:13:25;6.40;;;3.80;;
38479;SDS011;62333;51.980;5.934;2022-11-20T02:16:20;8.13;;;4.45;;
38479;SDS011;62333;51.980;5.934;2022-11-20T02:18:59;8.13;;;5.70;;
38479;SDS011;62333;51.980;5.934;2022-11-20T02:21:33;8.18;;;3.75;;
38479;SDS011;62333;51.980;5.934;2022-11-20T02:24:04;8.75;;;4.70;;
38479;SDS011;62333;51.980;5.934;2022-11-20T02:29:39;6.53;;;4.15;;
38479;SDS011;62333;51.980;5.934;2022-11-20T02:35:05;7.72;;;4.50;;
38479;SDS011;62333;51.980;5.934;2022-11-20T02:37:53;7.05;;;3.10;;
38479;SDS011;62333;51.980;5.934;2022-11-20T02:40:20;6.95;;;3.20;;
38479;SDS011;62333;51.980;5.934;2022-11-20T02:42:46;6.25;;;3.35;;
38479;SDS011;62333;51.980;5.934;2022-11-20T02:45:12;6.38;;;2.90;;
38479;SDS011;62333;51.980;5.934;2022-11-20T02:47:38;8.55;;;3.97;;
38479;SDS011;62333;51.980;5.934;2022-11-20T02:50:04;5.38;;;3.65;;
38479;SDS011;62333;51.980;5.934;2022-11-20T02:52:30;6.63;;;3.75;;
38479;SDS011;62333;51.980;5.934;2022-11-20T02:54:56;6.43;;;3.33;;
38479;SDS011;62333;51.980;5.934;2022-11-20T02:57:22;7.53;;;3.55;;
38479;SDS011;62333;51.980;5.934;2022-11-20T02:59:47;10.63;;;4.93;;
38479;SDS011;62333;51.980;5.934;2022-11-20T03:02:13;7.00;;;3.53;;
38479;SDS011;62333;51.980;5.934;2022-11-20T03:04:39;7.10;;;3.60;;
38479;SDS011;62333;51.980;5.934;2022-11-20T03:07:04;11.82;;;5.07;;
38479;SDS011;62333;51.980;5.934;2022-11-20T03:09:30;7.80;;;3.45;;
38479;SDS011;62333;51.980;5.934;2022-11-20T03:11:56;5.05;;;3.65;;
38479;SDS011;62333;51.980;5.934;2022-11-20T03:14:21;6.15;;;4.05;;
38479;SDS011;62333;51.980;5.934;2022-11-20T03:16:47;6.20;;;3.45;;
38479;SDS011;62333;51.980;5.934;2022-11-20T03:19:13;6.55;;;3.28;;
38479;SDS011;62333;51.980;5.934;2022-11-20T03:21:38;7.45;;;4.45;;
38479;SDS011;62333;51.980;5.934;2022-11-20T03:24:04;6.85;;;3.35;;
38479;SDS011;62333;51.980;5.934;2022-11-20T03:26:30;6.25;;;3.95;;
38479;SDS011;62333;51.980;5.934;2022-11-20T03:28:57;6.72;;;3.75;;
38479;SDS011;62333;51.980;5.934;2022-11-20T03:31:25;9.48;;;4.40;;
38479;SDS011;62333;51.980;5.934;2022-11-20T03:33:52;6.40;;;3.28;;
38479;SDS011;62333;51.980;5.934;2022-11-20T03:36:19;6.40;;;3.55;;
38479;SDS011;62333;51.980;5.934;2022-11-20T03:38:45;5.57;;;3.20;;
38479;SDS011;62333;51.980;5.934;2022-11-20T03:41:16;7.65;;;3.75;;
38479;SDS011;62333;51.980;5.934;2022-11-20T03:46:16;8.63;;;3.97;;
38479;SDS011;62333;51.980;5.934;2022-11-20T03:48:42;6.32;;;3.67;;
38479;SDS011;62333;51.980;5.934;2022-11-20T03:53:33;6.45;;;4.05;;
38479;SDS011;62333;51.980;5.934;2022-11-20T03:55:59;6.75;;;3.35;;
38479;SDS011;62333;51.980;5.934;2022-11-20T03:58:25;6.30;;;3.10;;
38479;SDS011;62333;51.980;5.934;2022-11-20T04:00:51;7.80;;;3.75;;
38479;SDS011;62333;51.980;5.934;2022-11-20T04:03:16;7.40;;;4.18;;
38479;SDS011;62333;51.980;5.934;2022-11-20T04:05:42;5.72;;;2.92;;
38479;SDS011;62333;51.980;5.934;2022-11-20T04:08:07;8.55;;;4.43;;
38479;SDS011;62333;51.980;5.934;2022-11-20T04:10:33;9.38;;;5.00;;
38479;SDS011;62333;51.980;5.934;2022-11-20T04:12:59;5.80;;;3.00;;
38479;SDS011;62333;51.980;5.934;2022-11-20T04:15:24;8.18;;;4.82;;
38479;SDS011;62333;51.980;5.934;2022-11-20T04:17:50;6.97;;;3.70;;
38479;SDS011;62333;51.980;5.934;2022-11-20T04:20:16;7.63;;;3.97;;
38479;SDS011;62333;51.980;5.934;2022-11-20T04:22:41;7.95;;;4.15;;
38479;SDS011;62333;51.980;5.934;2022-11-20T04:25:07;7.57;;;4.25;;
38479;SDS011;62333;51.980;5.934;2022-11-20T04:27:33;6.43;;;3.78;;
38479;SDS011;62333;51.980;5.934;2022-11-20T04:29:59;9.10;;;3.80;;
38479;SDS011;62333;51.980;5.934;2022-11-20T04:32:24;6.63;;;4.03;;
38479;SDS011;62333;51.980;5.934;2022-11-20T04:34:50;8.77;;;4.13;;
38479;SDS011;62333;51.980;5.934;2022-11-20T04:37:16;7.18;;;4.03;;
38479;SDS011;62333;51.980;5.934;2022-11-20T04:39:41;6.03;;;3.33;;
38479;SDS011;62333;51.980;5.934;2022-11-20T04:42:08;6.28;;;3.28;;
38479;SDS011;62333;51.980;5.934;2022-11-20T04:44:53;7.35;;;3.88;;
38479;SDS011;62333;51.980;5.934;2022-11-20T04:47:19;8.73;;;4.80;;
38479;SDS011;62333;51.980;5.934;2022-11-20T04:49:44;6.72;;;4.50;;
38479;SDS011;62333;51.980;5.934;2022-11-20T04:52:10;6.93;;;4.20;;
38479;SDS011;62333;51.980;5.934;2022-11-20T04:54:36;7.28;;;4.18;;
38479;SDS011;62333;51.980;5.934;2022-11-20T04:57:01;7.63;;;3.95;;
38479;SDS011;62333;51.980;5.934;2022-11-20T04:59:27;8.77;;;4.05;;
38479;SDS011;62333;51.980;5.934;2022-11-20T05:01:52;7.63;;;4.43;;
38479;SDS011;62333;51.980;5.934;2022-11-20T05:04:18;6.53;;;3.72;;
38479;SDS011;62333;51.980;5.934;2022-11-20T05:06:44;6.10;;;3.35;;
38479;SDS011;62333;51.980;5.934;2022-11-20T05:09:10;4.82;;;3.42;;
38479;SDS011;62333;51.980;5.934;2022-11-20T05:11:37;7.63;;;4.22;;
38479;SDS011;62333;51.980;5.934;2022-11-20T05:14:02;5.28;;;3.47;;
38479;SDS011;62333;51.980;5.934;2022-11-20T05:16:28;6.93;;;3.90;;
38479;SDS011;62333;51.980;5.934;2022-11-20T05:18:54;6.85;;;3.38;;
38479;SDS011;62333;51.980;5.934;2022-11-20T05:21:20;8.32;;;3.58;;
38479;SDS011;62333;51.980;5.934;2022-11-20T05:23:46;7.88;;;4.13;;
38479;SDS011;62333;51.980;5.934;2022-11-20T05:26:13;6.38;;;3.60;;
38479;SDS011;62333;51.980;5.934;2022-11-20T05:28:40;8.07;;;4.25;;
38479;SDS011;62333;51.980;5.934;2022-11-20T05:31:07;8.18;;;4.43;;
38479;SDS011;62333;51.980;5.934;2022-11-20T05:33:34;8.38;;;4.88;;
38479;SDS011;62333;51.980;5.934;2022-11-20T05:36:01;6.40;;;4.03;;
38479;SDS011;62333;51.980;5.934;2022-11-20T05:38:30;6.60;;;4.15;;
38479;SDS011;62333;51.980;5.934;2022-11-20T05:41:02;8.43;;;3.60;;
38479;SDS011;62333;51.980;5.934;2022-11-20T05:43:48;8.27;;;5.35;;
38479;SDS011;62333;51.980;5.934;2022-11-20T05:46:16;11.80;;;4.53;;
38479;SDS011;62333;51.980;5.934;2022-11-20T05:48:43;7.45;;;3.97;;
38479;SDS011;62333;51.980;5.934;2022-11-20T05:51:10;5.35;;;2.88;;
38479;SDS011;62333;51.980;5.934;2022-11-20T05:53:37;8.43;;;4.18;;
38479;SDS011;62333;51.980;5.934;2022-11-20T05:56:04;7.03;;;3.95;;
38479;SDS011;62333;51.980;5.934;2022-11-20T05:58:35;7.72;;;4.15;;
38479;SDS011;62333;51.980;5.934;2022-11-20T06:03:46;7.05;;;3.78;;
38479;SDS011;62333;51.980;5.934;2022-11-20T06:06:13;6.93;;;3.55;;
38479;SDS011;62333;51.980;5.934;2022-11-20T06:08:40;9.35;;;4.13;;
38479;SDS011;62333;51.980;5.934;2022-11-20T06:11:09;5.00;;;2.92;;
38479;SDS011;62333;51.980;5.934;2022-11-20T06:13:36;5.18;;;3.17;;
38479;SDS011;62333;51.980;5.934;2022-11-20T06:16:02;7.45;;;4.10;;
38479;SDS011;62333;51.980;5.934;2022-11-20T06:18:28;7.13;;;3.85;;
38479;SDS011;62333;51.980;5.934;2022-11-20T06:21:02;6.63;;;4.03;;
38479;SDS011;62333;51.980;5.934;2022-11-20T06:23:30;9.30;;;4.70;;
38479;SDS011;62333;51.980;5.934;2022-11-20T06:25:58;8.90;;;5.28;;
38479;SDS011;62333;51.980;5.934;2022-11-20T06:28:30;7.53;;;3.45;;
38479;SDS011;62333;51.980;5.934;2022-11-20T06:30:56;8.15;;;5.43;;
38479;SDS011;62333;51.980;5.934;2022-11-20T06:33:22;5.93;;;4.15;;
38479;SDS011;62333;51.980;5.934;2022-11-20T06:35:48;6.53;;;3.35;;
38479;SDS011;62333;51.980;5.934;2022-11-20T06:38:14;8.88;;;4.57;;
38479;SDS011;62333;51.980;5.934;2022-11-20T06:40:40;8.25;;;5.15;;
38479;SDS011;62333;51.980;5.934;2022-11-20T06:43:06;6.88;;;4.00;;
38479;SDS011;62333;51.980;5.934;2022-11-20T06:45:32;6.90;;;3.55;;
38479;SDS011;62333;51.980;5.934;2022-11-20T06:47:57;10.23;;;5.60;;
38479;SDS011;62333;51.980;5.934;2022-11-20T06:50:23;8.45;;;4.25;;
38479;SDS011;62333;51.980;5.934;2022-11-20T06:52:49;10.20;;;5.53;;
38479;SDS011;62333;51.980;5.934;2022-11-20T06:55:15;8.82;;;5.65;;
38479;SDS011;62333;51.980;5.934;2022-11-20T06:57:40;8.20;;;4.55;;
38479;SDS011;62333;51.980;5.934;2022-11-20T07:00:06;7.70;;;4.00;;
38479;SDS011;62333;51.980;5.934;2022-11-20T07:02:32;8.82;;;4.18;;
38479;SDS011;62333;51.980;5.934;2022-11-20T07:04:58;7.07;;;4.00;;
38479;SDS011;62333;51.980;5.934;2022-11-20T07:07:23;9.68;;;5.05;;
38479;SDS011;62333;51.980;5.934;2022-11-20T07:09:49;6.40;;;3.72;;
38479;SDS011;62333;51.980;5.934;2022-11-20T07:12:14;8.50;;;5.35;;
38479;SDS011;62333;51.980;5.934;2022-11-20T07:14:40;6.75;;;3.80;;
38479;SDS011;62333;51.980;5.934;2022-11-20T07:17:06;7.97;;;5.55;;
38479;SDS011;62333;51.980;5.934;2022-11-20T07:19:32;8.98;;;6.05;;
38479;SDS011;62333;51.980;5.934;2022-11-20T07:21:57;9.73;;;5.97;;
38479;SDS011;62333;51.980;5.934;2022-11-20T07:24:23;8.95;;;5.07;;
38479;SDS011;62333;51.980;5.934;2022-11-20T07:26:49;7.15;;;3.95;;
38479;SDS011;62333;51.980;5.934;2022-11-20T07:29:15;7.57;;;4.15;;
38479;SDS011;62333;51.980;5.934;2022-11-20T07:31:41;8.13;;;4.95;;
38479;SDS011;62333;51.980;5.934;2022-11-20T07:34:07;10.10;;;5.00;;
38479;SDS011;62333;51.980;5.934;2022-11-20T07:36:33;11.13;;;5.40;;
38479;SDS011;62333;51.980;5.934;2022-11-20T07:38:59;9.30;;;5.20;;
38479;SDS011;62333;51.980;5.934;2022-11-20T07:41:24;11.98;;;6.85;;
38479;SDS011;62333;51.980;5.934;2022-11-20T07:43:51;9.02;;;5.45;;
38479;SDS011;62333;51.980;5.934;2022-11-20T07:46:16;9.25;;;4.97;;
38479;SDS011;62333;51.980;5.934;2022-11-20T07:48:42;11.43;;;6.82;;
38479;SDS011;62333;51.980;5.934;2022-11-20T07:51:07;8.57;;;5.38;;
38479;SDS011;62333;51.980;5.934;2022-11-20T07:53:33;11.40;;;7.25;;
38479;SDS011;62333;51.980;5.934;2022-11-20T07:55:59;12.40;;;6.88;;
38479;SDS011;62333;51.980;5.934;2022-11-20T07:58:26;11.60;;;7.40;;
38479;SDS011;62333;51.980;5.934;2022-11-20T08:00:54;16.65;;;8.65;;
38479;SDS011;62333;51.980;5.934;2022-11-20T08:03:20;10.50;;;7.43;;
38479;SDS011;62333;51.980;5.934;2022-11-20T08:05:45;11.93;;;7.22;;
38479;SDS011;62333;51.980;5.934;2022-11-20T08:08:11;11.80;;;7.35;;
38479;SDS011;62333;51.980;5.934;2022-11-20T08:10:37;11.02;;;7.53;;
38479;SDS011;62333;51.980;5.934;2022-11-20T08:13:02;12.13;;;7.35;;
38479;SDS011;62333;51.980;5.934;2022-11-20T08:15:50;13.90;;;8.15;;
38479;SDS011;62333;51.980;5.934;2022-11-20T08:18:17;14.32;;;9.02;;
38479;SDS011;62333;51.980;5.934;2022-11-20T08:20:43;11.95;;;7.78;;
38479;SDS011;62333;51.980;5.934;2022-11-20T08:23:09;13.82;;;8.27;;
38479;SDS011;62333;51.980;5.934;2022-11-20T08:25:36;14.10;;;7.43;;
38479;SDS011;62333;51.980;5.934;2022-11-20T08:28:04;11.10;;;7.38;;
38479;SDS011;62333;51.980;5.934;2022-11-20T08:30:32;15.05;;;8.02;;
38479;SDS011;62333;51.980;5.934;2022-11-20T08:33:16;12.23;;;8.65;;
38479;SDS011;62333;51.980;5.934;2022-11-20T08:35:42;14.80;;;8.38;;
38479;SDS011;62333;51.980;5.934;2022-11-20T08:38:08;14.38;;;9.85;;
38479;SDS011;62333;51.980;5.934;2022-11-20T08:40:34;13.38;;;8.43;;
38479;SDS011;62333;51.980;5.934;2022-11-20T08:43:00;12.70;;;8.10;;
38479;SDS011;62333;51.980;5.934;2022-11-20T08:45:25;13.25;;;8.98;;
38479;SDS011;62333;51.980;5.934;2022-11-20T08:47:51;14.00;;;8.25;;
38479;SDS011;62333;51.980;5.934;2022-11-20T08:50:17;13.55;;;8.48;;
38479;SDS011;62333;51.980;5.934;2022-11-20T08:52:43;13.95;;;7.88;;
38479;SDS011;62333;51.980;5.934;2022-11-20T08:55:09;13.57;;;8.07;;
38479;SDS011;62333;51.980;5.934;2022-11-20T08:57:35;16.48;;;10.52;;
38479;SDS011;62333;51.980;5.934;2022-11-20T09:00:03;14.32;;;9.27;;
38479;SDS011;62333;51.980;5.934;2022-11-20T09:02:30;14.82;;;8.98;;
38479;SDS011;62333;51.980;5.934;2022-11-20T09:04:57;14.15;;;9.63;;
38479;SDS011;62333;51.980;5.934;2022-11-20T09:07:23;12.23;;;7.85;;
38479;SDS011;62333;51.980;5.934;2022-11-20T09:09:48;15.85;;;10.98;;
38479;SDS011;62333;51.980;5.934;2022-11-20T09:12:14;21.80;;;10.65;;
38479;SDS011;62333;51.980;5.934;2022-11-20T09:14:40;11.82;;;7.30;;
38479;SDS011;62333;51.980;5.934;2022-11-20T09:17:05;14.98;;;8.80;;
38479;SDS011;62333;51.980;5.934;2022-11-20T09:19:32;14.00;;;8.68;;
38479;SDS011;62333;51.980;5.934;2022-11-20T09:21:58;14.38;;;8.00;;
38479;SDS011;62333;51.980;5.934;2022-11-20T09:24:25;15.55;;;9.68;;
38479;SDS011;62333;51.980;5.934;2022-11-20T09:26:51;10.65;;;6.68;;
38479;SDS011;62333;51.980;5.934;2022-11-20T09:29:17;13.10;;;8.23;;
38479;SDS011;62333;51.980;5.934;2022-11-20T09:31:42;14.10;;;9.52;;
38479;SDS011;62333;51.980;5.934;2022-11-20T09:34:08;12.10;;;8.93;;
38479;SDS011;62333;51.980;5.934;2022-11-20T09:36:34;12.68;;;8.77;;
38479;SDS011;62333;51.980;5.934;2022-11-20T09:39:00;11.13;;;8.00;;
38479;SDS011;62333;51.980;5.934;2022-11-20T09:41:33;15.45;;;9.15;;
38479;SDS011;62333;51.980;5.934;2022-11-20T09:44:35;14.77;;;9.50;;
38479;SDS011;62333;51.980;5.934;2022-11-20T09:47:24;12.13;;;8.82;;
38479;SDS011;62333;51.980;5.934;2022-11-20T09:50:23;12.63;;;9.00;;
38479;SDS011;62333;51.980;5.934;2022-11-20T09:53:15;15.82;;;8.82;;
38479;SDS011;62333;51.980;5.934;2022-11-20T09:55:51;14.48;;;9.38;;
38479;SDS011;62333;51.980;5.934;2022-11-20T09:58:29;15.63;;;10.80;;
38479;SDS011;62333;51.980;5.934;2022-11-20T10:01:09;16.10;;;10.55;;
38479;SDS011;62333;51.980;5.934;2022-11-20T10:03:58;13.52;;;10.18;;
38479;SDS011;62333;51.980;5.934;2022-11-20T10:09:29;23.85;;;13.98;;
38479;SDS011;62333;51.980;5.934;2022-11-20T10:23:18;17.70;;;12.10;;
38479;SDS011;62333;51.980;5.934;2022-11-20T10:31:28;18.00;;;12.68;;
38479;SDS011;62333;51.980;5.934;2022-11-20T10:33:58;15.43;;;9.75;;
38479;SDS011;62333;51.980;5.934;2022-11-20T10:36:30;18.52;;;12.65;;
38479;SDS011;62333;51.980;5.934;2022-11-20T10:39:06;22.27;;;12.93;;
38479;SDS011;62333;51.980;5.934;2022-11-20T10:42:11;18.42;;;10.98;;
38479;SDS011;62333;51.980;5.934;2022-11-20T10:44:57;19.23;;;12.52;;
38479;SDS011;62333;51.980;5.934;2022-11-20T10:47:34;21.90;;;13.55;;
38479;SDS011;62333;51.980;5.934;2022-11-20T10:50:04;23.55;;;13.55;;
38479;SDS011;62333;51.980;5.934;2022-11-20T11:01:27;18.15;;;11.85;;
38479;SDS011;62333;51.980;5.934;2022-11-20T11:03:54;19.65;;;12.52;;
38479;SDS011;62333;51.980;5.934;2022-11-20T11:06:32;24.83;;;14.05;;
38479;SDS011;62333;51.980;5.934;2022-11-20T11:09:17;23.25;;;15.18;;
38479;SDS011;62333;51.980;5.934;2022-11-20T11:11:48;25.80;;;14.63;;
38479;SDS011;62333;51.980;5.934;2022-11-20T11:14:14;24.50;;;13.07;;
38479;SDS011;62333;51.980;5.934;2022-11-20T11:16:50;19.33;;;13.73;;
38479;SDS011;62333;51.980;5.934;2022-11-20T11:19:18;19.33;;;12.10;;
38479;SDS011;62333;51.980;5.934;2022-11-20T11:21:46;19.95;;;12.27;;
38479;SDS011;62333;51.980;5.934;2022-11-20T11:26:51;18.13;;;12.85;;
38479;SDS011;62333;51.980;5.934;2022-11-20T11:29:29;18.38;;;11.65;;
38479;SDS011;62333;51.980;5.934;2022-11-20T11:32:05;18.65;;;12.82;;
38479;SDS011;62333;51.980;5.934;2022-11-20T11:34:33;15.80;;;10.73;;
38479;SDS011;62333;51.980;5.934;2022-11-20T11:37:00;17.73;;;11.98;;
38479;SDS011;62333;51.980;5.934;2022-11-20T11:39:28;18.92;;;11.25;;
38479;SDS011;62333;51.980;5.934;2022-11-20T11:41:56;15.40;;;11.15;;
38479;SDS011;62333;51.980;5.934;2022-11-20T11:44:24;16.00;;;11.80;;
38479;SDS011;62333;51.980;5.934;2022-11-20T11:58:04;15.75;;;10.70;;
38479;SDS011;62333;51.980;5.934;2022-11-20T12:00:32;17.27;;;12.77;;
38479;SDS011;62333;51.980;5.934;2022-11-20T12:06:05;18.20;;;12.38;;
38479;SDS011;62333;51.980;5.934;2022-11-20T12:08:52;26.35;;;14.45;;
38479;SDS011;62333;51.980;5.934;2022-11-20T12:16:36;19.33;;;12.93;;
38479;SDS011;62333;51.980;5.934;2022-11-20T12:19:04;18.75;;;11.48;;
38479;SDS011;62333;51.980;5.934;2022-11-20T12:32:43;18.27;;;13.02;;
38479;SDS011;62333;51.980;5.934;2022-11-20T12:43:49;17.50;;;12.55;;
38479;SDS011;62333;51.980;5.934;2022-11-20T12:46:46;17.52;;;13.15;;
38479;SDS011;62333;51.980;5.934;2022-11-20T12:57:50;16.40;;;11.93;;
38479;SDS011;62333;51.980;5.934;2022-11-20T13:00:22;20.25;;;13.55;;
38479;SDS011;62333;51.980;5.934;2022-11-20T13:06:11;16.33;;;10.88;;
38479;SDS011;62333;51.980;5.934;2022-11-20T13:08:39;14.77;;;11.15;;
38479;SDS011;62333;51.980;5.934;2022-11-20T13:16:07;21.13;;;13.18;;
38479;SDS011;62333;51.980;5.934;2022-11-20T13:18:40;19.83;;;13.20;;
38479;SDS011;62333;51.980;5.934;2022-11-20T13:21:42;19.05;;;13.40;;
38479;SDS011;62333;51.980;5.934;2022-11-20T13:24:21;19.58;;;13.27;;
38479;SDS011;62333;51.980;5.934;2022-11-20T13:27:04;22.33;;;13.95;;
38479;SDS011;62333;51.980;5.934;2022-11-20T13:32:55;23.92;;;15.23;;
38479;SDS011;62333;51.980;5.934;2022-11-20T13:35:29;23.02;;;14.38;;
38479;SDS011;62333;51.980;5.934;2022-11-20T13:38:04;24.95;;;15.15;;
38479;SDS011;62333;51.980;5.934;2022-11-20T13:40:32;22.48;;;15.38;;
38479;SDS011;62333;51.980;5.934;2022-11-20T13:45:59;20.83;;;14.55;;
38479;SDS011;62333;51.980;5.934;2022-11-20T13:48:31;23.08;;;13.73;;
38479;SDS011;62333;51.980;5.934;2022-11-20T14:02:01;26.00;;;16.67;;
38479;SDS011;62333;51.980;5.934;2022-11-20T14:04:34;28.30;;;19.27;;
38479;SDS011;62333;51.980;5.934;2022-11-20T14:07:04;26.13;;;17.60;;
38479;SDS011;62333;51.980;5.934;2022-11-20T14:09:32;27.55;;;16.55;;
38479;SDS011;62333;51.980;5.934;2022-11-20T14:11:59;27.35;;;17.17;;
38479;SDS011;62333;51.980;5.934;2022-11-20T14:14:26;22.42;;;16.33;;
38479;SDS011;62333;51.980;5.934;2022-11-20T14:17:04;29.67;;;18.10;;
38479;SDS011;62333;51.980;5.934;2022-11-20T14:19:34;33.17;;;21.95;;
38479;SDS011;62333;51.980;5.934;2022-11-20T14:22:21;27.75;;;19.30;;
38479;SDS011;62333;51.980;5.934;2022-11-20T14:24:49;27.88;;;18.13;;
38479;SDS011;62333;51.980;5.934;2022-11-20T14:27:32;28.33;;;18.90;;
38479;SDS011;62333;51.980;5.934;2022-11-20T14:30:03;27.73;;;17.77;;
38479;SDS011;62333;51.980;5.934;2022-11-20T14:32:30;29.70;;;20.13;;
38479;SDS011;62333;51.980;5.934;2022-11-20T14:34:58;26.20;;;16.30;;
38479;SDS011;62333;51.980;5.934;2022-11-20T14:37:33;25.55;;;16.83;;
38479;SDS011;62333;51.980;5.934;2022-11-20T14:40:01;28.45;;;18.40;;
38479;SDS011;62333;51.980;5.934;2022-11-20T14:42:28;25.25;;;17.80;;
38479;SDS011;62333;51.980;5.934;2022-11-20T14:44:56;23.65;;;16.33;;
38479;SDS011;62333;51.980;5.934;2022-11-20T14:47:25;24.17;;;17.23;;
38479;SDS011;62333;51.980;5.934;2022-11-20T14:49:55;26.88;;;17.52;;
38479;SDS011;62333;51.980;5.934;2022-11-20T14:52:23;24.25;;;17.00;;
38479;SDS011;62333;51.980;5.934;2022-11-20T14:54:55;24.95;;;17.60;;
38479;SDS011;62333;51.980;5.934;2022-11-20T14:57:28;22.20;;;16.08;;
38479;SDS011;62333;51.980;5.934;2022-11-20T15:00:05;21.00;;;14.48;;
38479;SDS011;62333;51.980;5.934;2022-11-20T15:02:31;21.85;;;16.10;;
38479;SDS011;62333;51.980;5.934;2022-11-20T15:04:57;21.08;;;15.27;;
38479;SDS011;62333;51.980;5.934;2022-11-20T15:07:25;21.17;;;13.35;;
38479;SDS011;62333;51.980;5.934;2022-11-20T15:10:26;23.40;;;15.63;;
38479;SDS011;62333;51.980;5.934;2022-11-20T15:12:50;26.92;;;16.83;;
38479;SDS011;62333;51.980;5.934;2022-11-20T15:18:12;25.38;;;15.48;;
38479;SDS011;62333;51.980;5.934;2022-11-20T15:21:17;25.20;;;17.08;;
38479;SDS011;62333;51.980;5.934;2022-11-20T15:23:45;24.98;;;16.67;;
38479;SDS011;62333;51.980;5.934;2022-11-20T15:26:12;28.75;;;18.65;;
38479;SDS011;62333;51.980;5.934;2022-11-20T15:28:40;26.10;;;16.50;;
38479;SDS011;62333;51.980;5.934;2022-11-20T15:31:11;25.67;;;18.23;;
38479;SDS011;62333;51.980;5.934;2022-11-20T15:33:37;29.45;;;18.38;;
38479;SDS011;62333;51.980;5.934;2022-11-20T15:36:03;24.77;;;16.38;;
38479;SDS011;62333;51.980;5.934;2022-11-20T15:38:29;26.30;;;17.38;;
38479;SDS011;62333;51.980;5.934;2022-11-20T15:40:54;30.83;;;21.67;;
38479;SDS011;62333;51.980;5.934;2022-11-20T15:43:21;28.13;;;19.45;;
38479;SDS011;62333;51.980;5.934;2022-11-20T15:53:40;29.77;;;19.90;;
38479;SDS011;62333;51.980;5.934;2022-11-20T15:56:13;23.83;;;16.20;;
38479;SDS011;62333;51.980;5.934;2022-11-20T15:58:39;25.92;;;18.88;;
38479;SDS011;62333;51.980;5.934;2022-11-20T16:01:09;26.90;;;18.50;;
38479;SDS011;62333;51.980;5.934;2022-11-20T16:03:39;26.65;;;18.27;;
38479;SDS011;62333;51.980;5.934;2022-11-20T16:06:05;26.65;;;18.95;;
38479;SDS011;62333;51.980;5.934;2022-11-20T16:08:31;32.55;;;18.13;;
38479;SDS011;62333;51.980;5.934;2022-11-20T16:10:57;31.33;;;19.95;;
38479;SDS011;62333;51.980;5.934;2022-11-20T16:13:22;31.73;;;20.60;;
38479;SDS011;62333;51.980;5.934;2022-11-20T16:16:07;34.97;;;23.45;;
38479;SDS011;62333;51.980;5.934;2022-11-20T16:18:45;30.80;;;21.67;;
38479;SDS011;62333;51.980;5.934;2022-11-20T16:21:11;33.78;;;22.15;;
38479;SDS011;62333;51.980;5.934;2022-11-20T16:23:40;31.45;;;20.88;;
38479;SDS011;62333;51.980;5.934;2022-11-20T16:26:14;34.67;;;21.80;;
38479;SDS011;62333;51.980;5.934;2022-11-20T16:28:42;36.00;;;22.88;;
38479;SDS011;62333;51.980;5.934;2022-11-20T16:31:09;35.92;;;23.23;;
38479;SDS011;62333;51.980;5.934;2022-11-20T16:33:35;36.67;;;21.33;;
38479;SDS011;62333;51.980;5.934;2022-11-20T16:36:11;32.00;;;20.60;;
38479;SDS011;62333;51.980;5.934;2022-11-20T16:38:39;30.77;;;20.60;;
38479;SDS011;62333;51.980;5.934;2022-11-20T16:41:05;27.70;;;19.10;;
38479;SDS011;62333;51.980;5.934;2022-11-20T16:43:39;35.17;;;22.10;;
38479;SDS011;62333;51.980;5.934;2022-11-20T16:46:10;31.70;;;20.85;;
38479;SDS011;62333;51.980;5.934;2022-11-20T16:48:36;35.35;;;21.42;;
38479;SDS011;62333;51.980;5.934;2022-11-20T16:51:02;30.13;;;18.98;;
38479;SDS011;62333;51.980;5.934;2022-11-20T16:53:27;33.55;;;21.10;;
38479;SDS011;62333;51.980;5.934;2022-11-20T16:55:53;28.88;;;19.35;;
38479;SDS011;62333;51.980;5.934;2022-11-20T16:58:19;33.58;;;20.52;;
38479;SDS011;62333;51.980;5.934;2022-11-20T17:00:44;37.15;;;22.00;;
38479;SDS011;62333;51.980;5.934;2022-11-20T17:03:10;35.42;;;23.08;;